createdAt,value
2022-10-11T00:01:18.632Z,71.20
2022-10-11T00:03:45.213Z,71.33
2022-10-11T00:06:11.756Z,71.22
2022-10-11T00:08:38.322Z,71.62
2022-10-11T00:11:06.965Z,71.23
2022-10-11T00:13:34.093Z,71.50
2022-10-11T00:16:00.643Z,71.99
2022-10-11T00:18:27.222Z,71.72
2022-10-11T00:21:05.648Z,71.23
2022-10-11T00:23:33.172Z,71.95
2022-10-11T00:26:01.342Z,71.63
2022-10-11T00:28:28.236Z,70.89
2022-10-11T00:30:54.845Z,71.43
2022-10-11T00:33:21.443Z,71.23
2022-10-11T00:35:48.734Z,70.54
2022-10-11T00:38:15.545Z,70.91
2022-10-11T00:40:42.222Z,70.82
2022-10-11T00:43:17.274Z,70.49
2022-10-11T00:46:20.676Z,70.96
2022-10-11T00:48:55.578Z,70.04
2022-10-11T00:51:36.448Z,70.32
2022-10-11T00:54:03.831Z,70.10
2022-10-11T00:56:34.189Z,70.29
2022-10-11T00:59:03.529Z,69.47
2022-10-11T01:01:30.258Z,69.45
2022-10-11T01:03:57.205Z,69.00
2022-10-11T01:06:23.802Z,69.43
2022-10-11T01:08:51.653Z,69.37
2022-10-11T01:11:20.824Z,68.50
2022-10-11T01:14:05.834Z,68.67
2022-10-11T01:16:37.894Z,68.97
2022-10-11T01:19:21.833Z,68.65
2022-10-11T01:22:23.305Z,68.24
2022-10-11T01:25:07.993Z,68.11
2022-10-11T01:27:36.625Z,67.83
2022-10-11T01:30:25.354Z,67.46
2022-10-11T01:33:16.130Z,68.05
2022-10-11T01:36:02.623Z,67.05
2022-10-11T01:38:45.832Z,67.74
2022-10-11T01:41:16.918Z,67.63
2022-10-11T01:43:44.360Z,66.97
2022-10-11T01:46:11.340Z,66.95
2022-10-11T01:48:51.689Z,67.03
2022-10-11T01:51:20.565Z,67.13
2022-10-11T01:54:00.177Z,66.81
2022-10-11T01:57:01.678Z,67.25
2022-10-11T01:59:37.313Z,66.71
2022-10-11T02:02:34.663Z,66.92
2022-10-11T02:05:19.757Z,67.06
2022-10-11T02:07:57.838Z,66.98
2022-10-11T02:10:44.446Z,66.96
2022-10-11T02:13:40.099Z,67.02
2022-10-11T02:16:12.758Z,66.30
2022-10-11T02:18:42.010Z,66.87
2022-10-11T02:21:10.597Z,66.86
2022-10-11T02:23:42.032Z,66.91
2022-10-11T02:26:09.917Z,66.46
2022-10-11T02:28:38.275Z,66.84
2022-10-11T02:31:06.663Z,66.40
2022-10-11T02:33:39.686Z,66.38
2022-10-11T02:36:13.116Z,66.14
2022-10-11T02:38:48.415Z,66.29
2022-10-11T02:41:29.723Z,65.89
2022-10-11T02:44:00.345Z,65.95
2022-10-11T02:46:30.419Z,66.16
2022-10-11T02:49:00.745Z,66.30
2022-10-11T02:51:30.420Z,65.97
2022-10-11T02:53:57.227Z,65.95
2022-10-11T02:56:23.762Z,65.91
2022-10-11T02:58:50.327Z,65.64
2022-10-11T03:01:16.929Z,65.82
2022-10-11T03:03:43.534Z,65.69
2022-10-11T03:06:10.094Z,66.15
2022-10-11T03:08:36.624Z,65.74
2022-10-11T03:11:03.168Z,65.93
2022-10-11T03:13:29.682Z,66.10
2022-10-11T03:16:03.148Z,65.83
2022-10-11T03:18:33.944Z,65.55
2022-10-11T03:21:00.485Z,65.65
2022-10-11T03:23:27.136Z,65.71
2022-10-11T03:25:53.740Z,65.35
2022-10-11T03:28:20.703Z,65.54
2022-10-11T03:30:51.308Z,65.40
2022-10-11T03:33:18.215Z,65.37
2022-10-11T03:35:46.111Z,65.52
2022-10-11T03:38:14.349Z,65.64
2022-10-11T03:40:42.161Z,65.60
2022-10-11T03:43:08.801Z,65.27
2022-10-11T03:45:35.527Z,65.52
2022-10-11T03:48:02.592Z,65.24
2022-10-11T03:50:29.129Z,65.38
2022-10-11T03:52:55.712Z,65.21
2022-10-11T03:55:22.237Z,64.55
2022-10-11T03:57:48.766Z,64.84
2022-10-11T04:00:15.475Z,65.28
2022-10-11T04:02:42.018Z,65.18
2022-10-11T04:05:08.928Z,65.57
2022-10-11T04:07:35.444Z,64.88
2022-10-11T04:10:02.010Z,65.27
2022-10-11T04:12:29.010Z,64.67
2022-10-11T04:14:55.586Z,64.96
2022-10-11T04:17:22.123Z,65.05
2022-10-11T04:19:48.709Z,64.43
2022-10-11T04:22:15.271Z,64.07
2022-10-11T04:24:41.823Z,63.93
2022-10-11T04:27:08.371Z,64.46
2022-10-11T04:29:34.904Z,64.46
2022-10-11T04:32:01.458Z,64.44
2022-10-11T04:34:28.088Z,64.55
2022-10-11T04:36:54.638Z,64.17
2022-10-11T04:39:21.261Z,64.00
2022-10-11T04:41:47.940Z,63.95
2022-10-11T04:44:14.571Z,64.53
2022-10-11T04:46:41.211Z,63.63
2022-10-11T04:49:07.754Z,63.96
2022-10-11T04:51:34.296Z,64.39
2022-10-11T04:54:00.843Z,64.03
2022-10-11T04:56:27.418Z,64.17
2022-10-11T04:58:54.669Z,64.32
2022-10-11T05:01:21.386Z,64.53
2022-10-11T05:03:48.132Z,64.15
2022-10-11T05:06:14.762Z,64.00
2022-10-11T05:08:41.627Z,64.37
2022-10-11T05:11:12.437Z,64.04
2022-10-11T05:13:40.562Z,63.78
2022-10-11T05:16:10.811Z,63.46
2022-10-11T05:18:38.368Z,63.55
2022-10-11T05:21:14.554Z,64.16
2022-10-11T05:23:41.232Z,64.11
2022-10-11T05:26:08.248Z,64.19
2022-10-11T05:28:35.121Z,64.26
2022-10-11T05:31:01.701Z,63.77
2022-10-11T05:33:28.349Z,64.51
2022-10-11T05:35:54.919Z,64.15
2022-10-11T05:38:21.677Z,64.43
2022-10-11T05:40:48.653Z,64.41
2022-10-11T05:43:15.323Z,64.24
2022-10-11T05:45:43.936Z,65.02
2022-10-11T05:48:11.173Z,64.87
2022-10-11T05:50:38.431Z,64.93
2022-10-11T05:53:05.359Z,64.81
2022-10-11T05:55:39.630Z,64.46
2022-10-11T05:58:06.874Z,64.71
2022-10-11T06:00:36.797Z,64.15
2022-10-11T06:03:04.132Z,63.98
2022-10-11T06:05:30.879Z,64.10
2022-10-11T06:08:00.162Z,64.53
2022-10-11T06:10:27.076Z,64.72
2022-10-11T06:12:53.682Z,64.87
2022-10-11T06:15:20.281Z,65.24
2022-10-11T06:17:47.124Z,65.22
2022-10-11T06:20:14.595Z,64.88
2022-10-11T06:22:41.242Z,65.11
2022-10-11T06:25:08.301Z,65.23
2022-10-11T06:27:34.866Z,65.11
2022-10-11T06:30:01.463Z,65.34
2022-10-11T06:32:28.006Z,65.43
2022-10-11T06:34:54.814Z,65.34
2022-10-11T06:37:21.353Z,65.00
2022-10-11T06:39:48.042Z,64.89
2022-10-11T06:42:14.568Z,65.86
2022-10-11T06:44:41.107Z,65.67
2022-10-11T06:47:08.666Z,65.59
2022-10-11T06:49:35.452Z,65.47
2022-10-11T06:52:02.065Z,66.15
2022-10-11T06:54:28.594Z,65.98
2022-10-11T06:56:55.150Z,65.98
2022-10-11T06:59:21.701Z,66.37
2022-10-11T07:01:48.256Z,66.63
2022-10-11T07:04:14.798Z,66.81
2022-10-11T07:06:41.660Z,67.19
2022-10-11T07:09:08.773Z,66.78
2022-10-11T07:11:35.541Z,67.08
2022-10-11T07:14:07.589Z,66.82
2022-10-11T07:16:36.198Z,66.61
2022-10-11T07:19:04.218Z,66.57
2022-10-11T07:21:32.038Z,66.50
2022-10-11T07:23:58.998Z,66.50
2022-10-11T07:26:25.765Z,66.57
2022-10-11T07:28:52.379Z,67.13
2022-10-11T07:31:21.891Z,67.38
2022-10-11T07:33:48.882Z,67.46
2022-10-11T07:36:15.738Z,66.88
2022-10-11T07:38:43.531Z,66.73
2022-10-11T07:41:11.268Z,66.97
2022-10-11T07:43:38.668Z,67.54
2022-10-11T07:46:06.082Z,67.75
2022-10-11T07:48:34.624Z,67.17
2022-10-11T07:51:04.734Z,67.50
2022-10-11T07:53:31.315Z,67.70
2022-10-11T07:56:02.243Z,67.62
2022-10-11T07:58:29.159Z,67.93
2022-10-11T08:00:55.779Z,67.35
2022-10-11T08:03:22.697Z,67.89
2022-10-11T08:05:49.430Z,67.90
2022-10-11T08:08:15.998Z,67.74
2022-10-11T08:10:42.620Z,67.36
2022-10-11T08:13:09.201Z,67.74
2022-10-11T08:15:36.067Z,67.15
2022-10-11T08:18:02.636Z,67.10
2022-10-11T08:20:31.101Z,66.80
2022-10-11T08:22:57.672Z,67.56
2022-10-11T08:25:24.255Z,66.81
2022-10-11T08:27:50.816Z,67.05
2022-10-11T08:30:17.534Z,67.24
2022-10-11T08:32:44.094Z,67.42
2022-10-11T08:35:10.626Z,67.28
2022-10-11T08:37:37.299Z,67.13
2022-10-11T08:40:05.860Z,66.41
2022-10-11T08:42:38.950Z,66.64
2022-10-11T08:45:12.104Z,67.07
2022-10-11T08:47:41.190Z,66.67
2022-10-11T08:50:14.675Z,66.77
2022-10-11T08:52:59.987Z,66.23
2022-10-11T08:55:34.837Z,67.43
2022-10-11T08:58:01.993Z,66.67
2022-10-11T09:00:31.648Z,66.88
2022-10-11T09:03:09.384Z,67.30
2022-10-11T09:05:45.905Z,67.21
2022-10-11T09:08:22.375Z,67.12
2022-10-11T09:11:23.040Z,67.23
2022-10-11T09:14:08.338Z,67.67
2022-10-11T09:16:57.574Z,67.44
2022-10-11T09:19:51.717Z,67.83
2022-10-11T09:22:43.250Z,67.43
2022-10-11T09:25:25.922Z,67.14
2022-10-11T09:28:17.838Z,67.44
2022-10-11T09:30:49.117Z,67.17
2022-10-11T09:33:21.558Z,67.21
2022-10-11T09:35:50.694Z,66.82
2022-10-11T09:38:36.646Z,66.94
2022-10-11T09:41:05.509Z,67.18
2022-10-11T09:43:32.041Z,67.03
2022-10-11T09:45:58.681Z,66.74
2022-10-11T09:48:28.744Z,67.00
2022-10-11T09:51:02.021Z,66.55
2022-10-11T09:53:51.974Z,67.27
2022-10-11T09:56:18.686Z,66.89
2022-10-11T09:58:45.277Z,66.53
2022-10-11T10:01:13.999Z,66.27
2022-10-11T10:03:42.290Z,66.46
2022-10-11T10:06:23.680Z,66.63
2022-10-11T10:08:50.678Z,66.52
2022-10-11T10:11:18.712Z,65.89
2022-10-11T10:13:51.861Z,64.81
2022-10-11T10:16:25.646Z,64.35
2022-10-11T10:18:56.037Z,64.60
2022-10-11T10:21:44.129Z,64.44
2022-10-11T10:24:29.119Z,64.38
2022-10-11T10:27:22.725Z,64.25
2022-10-11T10:30:10.293Z,63.46
2022-10-11T10:32:52.216Z,63.59
2022-10-11T10:35:46.671Z,63.65
2022-10-11T10:38:26.364Z,63.68
2022-10-11T10:41:09.350Z,63.13
2022-10-11T10:43:37.999Z,62.56
2022-10-11T10:46:23.306Z,62.73
2022-10-11T10:49:41.122Z,62.93
2022-10-11T10:52:20.785Z,63.04
2022-10-11T10:55:05.542Z,62.39
2022-10-11T10:58:07.146Z,63.12
2022-10-11T11:00:42.544Z,63.19
2022-10-11T11:03:16.617Z,62.08
2022-10-11T11:05:51.050Z,62.95
2022-10-11T11:08:38.954Z,63.33
2022-10-11T11:11:24.179Z,62.17
2022-10-11T11:14:11.545Z,62.19
2022-10-11T11:16:47.920Z,62.28
2022-10-11T11:19:26.999Z,61.15
2022-10-11T11:22:02.189Z,60.61
2022-10-11T11:24:34.605Z,60.63
2022-10-11T11:27:13.124Z,61.34
2022-10-11T11:30:05.463Z,60.20
2022-10-11T11:32:52.174Z,60.98
2022-10-11T11:35:33.542Z,60.37
2022-10-11T11:38:43.577Z,60.38
2022-10-11T11:41:26.040Z,60.60
2022-10-11T11:43:57.178Z,60.21
2022-10-11T11:46:29.376Z,60.93
2022-10-11T11:48:58.698Z,61.29
2022-10-11T11:51:31.550Z,60.59
2022-10-11T11:54:06.079Z,60.79
2022-10-11T11:57:04.692Z,61.08
2022-10-11T11:59:31.146Z,60.27
2022-10-11T12:02:12.957Z,59.19
2022-10-11T12:04:42.297Z,58.55
2022-10-11T12:07:16.405Z,59.65
2022-10-11T12:09:46.114Z,59.17
2022-10-11T12:12:29.471Z,59.32
2022-10-11T12:15:25.730Z,59.67
2022-10-11T12:17:55.854Z,58.44
2022-10-11T12:20:29.179Z,57.92
2022-10-11T12:22:58.421Z,57.20
2022-10-11T12:25:28.660Z,56.99
2022-10-11T12:28:00.332Z,56.52
2022-10-11T12:30:48.278Z,58.74
2022-10-11T12:33:32.202Z,57.02
2022-10-11T12:36:05.710Z,57.03
2022-10-11T12:38:37.850Z,58.67
2022-10-11T12:41:10.379Z,57.28
2022-10-11T12:44:17.030Z,57.85
2022-10-11T12:47:12.913Z,58.08
2022-10-11T12:50:06.754Z,57.73
2022-10-11T12:52:52.134Z,57.12
2022-10-11T12:55:22.932Z,57.95
2022-10-11T12:58:07.445Z,57.05
2022-10-11T13:00:41.588Z,57.80
2022-10-11T13:03:35.339Z,58.18
2022-10-11T13:06:27.768Z,57.64
2022-10-11T13:08:58.770Z,57.61
2022-10-11T13:11:29.976Z,57.16
2022-10-11T13:14:13.261Z,57.14
2022-10-11T13:17:00.958Z,56.57
2022-10-11T13:19:28.514Z,56.64
2022-10-11T13:21:58.165Z,57.20
2022-10-11T13:24:26.172Z,56.08
2022-10-11T13:26:55.334Z,56.50
2022-10-11T13:29:34.109Z,57.14
2022-10-11T13:32:08.264Z,55.45
2022-10-11T13:34:38.473Z,55.79
2022-10-11T13:37:05.957Z,56.54
2022-10-11T13:39:38.176Z,55.77
2022-10-11T13:42:10.839Z,55.90
2022-10-11T13:44:38.580Z,55.78
2022-10-11T13:47:05.446Z,55.85
2022-10-11T13:49:37.697Z,55.86
2022-10-11T13:52:26.977Z,55.25
2022-10-11T13:54:53.505Z,54.62
2022-10-11T13:57:21.927Z,55.09
2022-10-11T13:59:48.479Z,55.24
2022-10-11T14:02:18.513Z,55.06
2022-10-11T14:04:45.079Z,54.94
2022-10-11T14:07:31.821Z,54.99
2022-10-11T14:09:58.423Z,55.88
2022-10-11T14:12:43.258Z,56.70
2022-10-11T14:15:26.329Z,56.49
2022-10-11T14:17:53.132Z,56.84
2022-10-11T14:20:29.535Z,56.95
2022-10-11T14:22:58.871Z,56.64
2022-10-11T14:25:25.428Z,56.95
2022-10-11T14:27:52.038Z,56.63
2022-10-11T14:30:26.205Z,57.28
2022-10-11T14:32:55.525Z,57.02
2022-10-11T14:35:24.756Z,57.17
2022-10-11T14:37:51.960Z,56.96
2022-10-11T14:40:21.608Z,57.26
2022-10-11T14:42:48.432Z,56.82
2022-10-11T14:45:15.041Z,56.45
2022-10-11T14:47:43.166Z,57.28
2022-10-11T14:50:37.527Z,57.14
2022-10-11T14:53:04.776Z,56.50
2022-10-11T14:55:31.654Z,57.25
2022-10-11T14:57:58.399Z,57.21
2022-10-11T15:00:26.851Z,57.22
2022-10-11T15:02:53.912Z,57.41
2022-10-11T15:05:21.927Z,57.61
2022-10-11T15:07:48.899Z,57.46
2022-10-11T15:10:22.221Z,57.17
2022-10-11T15:12:50.129Z,56.25
2022-10-11T15:15:22.405Z,56.10
2022-10-11T15:17:54.789Z,56.79
2022-10-11T15:20:34.181Z,57.33
2022-10-11T15:23:01.376Z,57.18
2022-10-11T15:25:29.083Z,57.65
2022-10-11T15:27:56.534Z,57.54
2022-10-11T15:30:25.458Z,57.64
2022-10-11T15:32:52.779Z,57.98
2022-10-11T15:35:20.602Z,57.87
2022-10-11T15:37:47.314Z,58.07
2022-10-11T15:40:20.024Z,58.22
2022-10-11T15:42:46.909Z,58.40
2022-10-11T15:45:13.545Z,57.81
2022-10-11T15:47:40.192Z,57.79
2022-10-11T15:50:39.281Z,58.45
2022-10-11T15:53:15.814Z,58.42
2022-10-11T15:55:46.659Z,58.31
2022-10-11T15:58:13.512Z,58.31
2022-10-11T16:00:40.264Z,59.21
2022-10-11T16:03:07.136Z,58.83
2022-10-11T16:05:33.806Z,59.73
2022-10-11T16:08:00.413Z,59.21
2022-10-11T16:10:27.011Z,60.02
2022-10-11T16:12:53.656Z,60.13
2022-10-11T16:15:20.196Z,59.47
2022-10-11T16:17:47.118Z,59.72
2022-10-11T16:20:14.182Z,60.55
2022-10-11T16:22:41.357Z,60.66
2022-10-11T16:25:07.938Z,60.94
2022-10-11T16:27:34.783Z,61.35
2022-10-11T16:30:01.458Z,61.44
2022-10-11T16:32:28.438Z,61.35
2022-10-11T16:34:54.978Z,60.90
2022-10-11T16:37:21.574Z,60.73
2022-10-11T16:39:48.155Z,61.62
2022-10-11T16:42:14.782Z,60.87
2022-10-11T16:44:41.324Z,61.01
2022-10-11T16:47:07.910Z,61.00
2022-10-11T16:49:34.858Z,61.20
2022-10-11T16:52:03.862Z,60.51
2022-10-11T16:54:31.011Z,61.08
2022-10-11T16:56:58.534Z,61.51
2022-10-11T16:59:25.497Z,61.13
2022-10-11T17:01:52.054Z,61.09
2022-10-11T17:04:18.743Z,61.26
2022-10-11T17:06:45.362Z,60.99
2022-10-11T17:09:11.971Z,60.47
2022-10-11T17:11:38.679Z,61.24
2022-10-11T17:14:06.187Z,61.49
2022-10-11T17:16:32.903Z,61.29
2022-10-11T17:18:59.539Z,61.41
2022-10-11T17:21:26.120Z,61.55
2022-10-11T17:23:52.760Z,60.96
2022-10-11T17:26:23.231Z,61.51
2022-10-11T17:28:50.000Z,61.69
2022-10-11T17:31:17.122Z,60.70
2022-10-11T17:33:43.689Z,61.26
2022-10-11T17:36:23.041Z,60.98
2022-10-11T17:38:51.253Z,60.52
2022-10-11T17:41:18.335Z,59.95
2022-10-11T17:43:45.088Z,60.08
2022-10-11T17:46:12.975Z,60.40
2022-10-11T17:48:39.606Z,60.67
2022-10-11T17:51:11.265Z,60.91
2022-10-11T17:53:38.123Z,60.47
2022-10-11T17:56:14.206Z,60.43
2022-10-11T17:58:41.037Z,60.35
2022-10-11T18:01:10.821Z,59.63
2022-10-11T18:03:37.976Z,60.42
2022-10-11T18:06:09.836Z,60.18
2022-10-11T18:08:40.603Z,60.42
2022-10-11T18:11:12.609Z,60.24
2022-10-11T18:13:42.398Z,60.43
2022-10-11T18:16:10.705Z,60.41
2022-10-11T18:18:37.967Z,60.16
2022-10-11T18:21:04.765Z,59.89
2022-10-11T18:23:31.644Z,59.84
2022-10-11T18:25:58.204Z,59.51
2022-10-11T18:28:24.862Z,59.50
2022-10-11T18:30:53.122Z,59.63
2022-10-11T18:33:19.671Z,59.88
2022-10-11T18:35:46.198Z,59.69
2022-10-11T18:38:12.713Z,59.53
2022-10-11T18:40:43.423Z,60.28
2022-10-11T18:43:13.099Z,59.15
2022-10-11T18:45:39.616Z,59.98
2022-10-11T18:48:08.424Z,59.22
2022-10-11T18:50:35.582Z,59.57
2022-10-11T18:55:29.731Z,59.21
2022-10-11T18:57:56.358Z,59.39
2022-10-11T19:00:40.046Z,59.58
2022-10-11T19:03:07.529Z,59.72
2022-10-11T19:05:34.151Z,59.14
2022-10-11T19:08:00.798Z,59.04
2022-10-11T19:10:27.342Z,58.89
2022-10-11T19:12:55.451Z,58.99
2022-10-11T19:15:26.464Z,58.78
2022-10-11T19:17:55.137Z,59.23
2022-10-11T19:20:21.870Z,58.89
2022-10-11T19:22:48.470Z,59.35
2022-10-11T19:25:15.212Z,59.32
2022-10-11T19:27:41.737Z,59.36
2022-10-11T19:30:09.036Z,59.59
2022-10-11T19:32:35.651Z,59.27
2022-10-11T19:35:02.208Z,59.47
2022-10-11T19:37:28.985Z,59.38
2022-10-11T19:39:55.750Z,59.47
2022-10-11T19:42:22.343Z,59.25
2022-10-11T19:44:48.894Z,59.88
2022-10-11T19:47:16.273Z,59.37
2022-10-11T19:49:42.822Z,59.35
2022-10-11T19:52:09.534Z,59.34
2022-10-11T19:54:36.064Z,59.39
2022-10-11T19:57:02.869Z,59.19
2022-10-11T19:59:29.442Z,58.62
2022-10-11T20:01:55.990Z,58.69
2022-10-11T20:04:50.533Z,58.53
2022-10-11T20:07:11.070Z,59.02
2022-10-11T20:09:37.629Z,58.85
2022-10-11T20:12:04.393Z,58.96
2022-10-11T20:14:30.965Z,58.35
2022-10-11T20:16:57.500Z,59.03
2022-10-11T20:19:30.721Z,59.00
2022-10-11T20:21:58.758Z,59.09
2022-10-11T20:24:27.425Z,59.01
2022-10-11T20:26:54.326Z,59.31
2022-10-11T20:29:20.864Z,59.02
2022-10-11T20:31:47.403Z,59.03
2022-10-11T20:34:13.987Z,58.78
2022-10-11T20:36:40.681Z,58.79
2022-10-11T20:39:07.273Z,58.55
2022-10-11T20:41:37.050Z,58.85
2022-10-11T20:44:03.908Z,58.34
2022-10-11T20:46:32.857Z,58.23
2022-10-11T20:49:02.383Z,58.76
2022-10-11T20:51:33.869Z,58.94
2022-10-11T20:54:02.071Z,58.14
2022-10-11T20:56:29.704Z,58.26
2022-10-11T20:58:57.159Z,58.42
2022-10-11T21:01:35.557Z,58.25
2022-10-11T21:04:02.459Z,58.46
2022-10-11T21:06:30.151Z,58.29
2022-10-11T21:08:58.938Z,58.18
2022-10-11T21:11:31.194Z,57.91
2022-10-11T21:13:59.020Z,57.85
2022-10-11T21:16:26.139Z,58.00
2022-10-11T21:18:54.064Z,58.40
2022-10-11T21:21:21.090Z,57.83
2022-10-11T21:23:47.605Z,58.24
2022-10-11T21:26:16.737Z,58.09
2022-10-11T21:28:44.963Z,58.42
2022-10-11T21:31:14.338Z,58.63
2022-10-11T21:33:42.207Z,58.53
2022-10-11T21:36:11.386Z,57.82
2022-10-11T21:38:38.286Z,57.82
2022-10-11T21:41:09.433Z,57.48
2022-10-11T21:43:38.073Z,57.59
2022-10-11T21:46:11.602Z,57.69
2022-10-11T21:48:38.449Z,58.52
2022-10-11T21:51:05.313Z,58.40
2022-10-11T21:53:32.105Z,58.18
2022-10-11T21:56:01.550Z,57.89
2022-10-11T21:58:28.466Z,57.64
2022-10-11T22:00:55.039Z,57.35
2022-10-11T22:03:21.685Z,57.27
2022-10-11T22:05:48.551Z,57.22
2022-10-11T22:08:15.554Z,56.84
2022-10-11T22:10:52.127Z,57.35
2022-10-11T22:13:18.668Z,56.75
2022-10-11T22:15:45.186Z,57.53
2022-10-11T22:18:11.714Z,57.03
2022-10-11T22:20:38.243Z,57.70
2022-10-11T22:23:04.779Z,57.33
2022-10-11T22:25:31.311Z,57.38
2022-10-11T22:27:57.858Z,57.23
2022-10-11T22:30:24.396Z,57.29
2022-10-11T22:32:51.832Z,57.37
2022-10-11T22:35:19.122Z,57.13
2022-10-11T22:37:45.743Z,57.19
2022-10-11T22:40:12.301Z,57.02
2022-10-11T22:42:38.816Z,56.66
2022-10-11T22:45:05.730Z,57.25
2022-10-11T22:47:32.274Z,57.46
2022-10-11T22:49:58.819Z,56.94
2022-10-11T22:52:25.384Z,57.25
2022-10-11T22:54:51.931Z,57.05
2022-10-11T22:57:18.478Z,57.03
2022-10-11T22:59:45.004Z,57.31
2022-10-11T23:02:11.549Z,56.82
2022-10-11T23:04:38.061Z,56.49
2022-10-11T23:07:05.208Z,56.04
2022-10-11T23:09:31.904Z,56.53
2022-10-11T23:11:59.265Z,56.82
2022-10-11T23:14:25.817Z,56.97
2022-10-11T23:16:52.861Z,56.99
2022-10-11T23:19:19.553Z,56.33
2022-10-11T23:21:46.775Z,56.80
2022-10-11T23:24:13.509Z,56.75
2022-10-11T23:26:40.038Z,56.75
2022-10-11T23:29:06.567Z,56.67
2022-10-11T23:31:33.088Z,56.22
2022-10-11T23:33:59.618Z,56.42
2022-10-11T23:36:26.195Z,57.10
2022-10-11T23:38:54.401Z,56.94
2022-10-11T23:41:21.930Z,56.50
2022-10-11T23:43:48.458Z,56.81
2022-10-11T23:46:15.059Z,56.55
2022-10-11T23:48:41.700Z,55.96
2022-10-11T23:51:08.304Z,55.72
2022-10-11T23:53:35.263Z,55.93
2022-10-11T23:56:02.377Z,56.07
2022-10-11T23:58:28.967Z,56.25
